Time;durP1;ratioP1;P1;durP2;ratioP2;P2;SDS_P1;SDS_P2;PMS_P1;PMS_P2;Temp;Humidity;BMP_temperature;BMP_pressure;BME280_temperature;BME280_humidity;BME280_pressure;Samples;Min_cycle;Max_cycle;Signal;HPM_P1;HPM_P2
2022/11/17 00:00:28;;;;;;;9.88;4.20;;;;;;;6.44;100.00;94965.91;5039625;28;20209;-67
2022/11/17 00:02:54;;;;;;;7.20;4.75;;;;;;;6.44;100.00;94974.06;5041945;28;20044;-67
2022/11/17 00:05:19;;;;;;;8.75;4.68;;;;;;;6.46;100.00;94988.84;5001484;28;20041;-68
2022/11/17 00:07:45;;;;;;;8.15;4.25;;;;;;;6.51;100.00;95001.28;5052555;28;20041;-67
2022/11/17 00:10:12;;;;;;;6.78;4.13;;;;;;;6.56;100.00;95000.94;5035817;28;20106;-67
2022/11/17 00:15:22;;;;;;;8.98;4.78;;;;;;;6.81;100.00;94989.38;5037518;28;20513;-67
2022/11/17 00:21:17;;;;;;;6.32;4.32;;;;;;;6.82;100.00;95005.28;5022656;28;20155;-68
2022/11/17 00:23:23;;;;;;;8.25;5.25;;;;;;;6.63;100.00;95020.00;5017383;28;20593;-67
2022/11/17 00:25:49;;;;;;;7.68;4.30;;;;;;;6.69;100.00;95020.41;5043801;28;20440;-68
2022/11/17 00:28:15;;;;;;;12.00;4.93;;;;;;;6.64;100.00;95024.28;5036293;28;20039;-68
2022/11/17 00:36:08;;;;;;;8.90;5.88;;;;;;;6.63;100.00;95030.88;5052058;28;20442;-67
2022/11/17 00:38:33;;;;;;;12.20;6.13;;;;;;;6.73;100.00;95031.31;5041968;28;20041;-68
2022/11/17 00:40:59;;;;;;;10.45;5.78;;;;;;;6.67;100.00;95028.19;5007319;28;20051;-69
2022/11/17 00:43:24;;;;;;;14.23;5.82;;;;;;;6.51;100.00;95023.81;5035930;28;20044;-68
2022/11/17 00:45:49;;;;;;;11.02;5.50;;;;;;;6.55;100.00;95020.34;5052748;28;20051;-68
2022/11/17 00:48:15;;;;;;;11.93;6.80;;;;;;;6.57;100.00;95034.34;5052719;28;20056;-68
2022/11/17 00:50:41;;;;;;;12.20;6.35;;;;;;;6.58;100.00;95036.69;5058418;28;20099;-68
2022/11/17 00:53:06;;;;;;;11.65;6.82;;;;;;;6.56;100.00;95035.53;5044800;28;20037;-66
2022/11/17 00:55:32;;;;;;;11.98;6.53;;;;;;;6.39;100.00;95045.13;5042282;28;20211;-68
2022/11/17 00:57:57;;;;;;;10.35;6.25;;;;;;;6.26;100.00;95050.09;5043940;28;20041;-68
2022/11/17 01:00:22;;;;;;;10.90;7.07;;;;;;;6.02;100.00;95046.06;5038082;28;20041;-68
2022/11/17 01:02:48;;;;;;;14.45;9.93;;;;;;;5.81;100.00;95022.97;5039983;28;20466;-68
2022/11/17 01:05:13;;;;;;;16.08;7.38;;;;;;;5.42;100.00;95012.56;5035573;28;20040;-67
2022/11/17 01:07:39;;;;;;;11.70;7.55;;;;;;;5.19;100.00;95026.31;5038364;28;20041;-68
2022/11/17 01:10:05;;;;;;;19.00;11.07;;;;;;;5.17;100.00;95020.47;5033651;28;20041;-65
2022/11/17 01:12:30;;;;;;;11.82;8.13;;;;;;;5.07;100.00;95016.50;5038822;28;20037;-67
2022/11/17 01:14:56;;;;;;;13.18;8.85;;;;;;;4.99;100.00;95012.16;5021708;28;20037;-67
2022/11/17 01:17:21;;;;;;;15.00;9.50;;;;;;;5.07;100.00;95015.72;5034200;28;20895;-66
2022/11/17 01:19:48;;;;;;;14.85;9.82;;;;;;;5.20;100.00;95011.56;5035407;28;20045;-66
2022/11/17 01:22:13;;;;;;;14.18;8.23;;;;;;;5.20;100.00;94999.94;5018857;28;20079;-66
2022/11/17 01:24:38;;;;;;;16.35;8.70;;;;;;;5.13;100.00;94987.06;5039804;28;20045;-66
2022/11/17 01:27:04;;;;;;;13.73;8.70;;;;;;;5.07;100.00;94985.88;5016439;28;20135;-66
2022/11/17 01:29:29;;;;;;;16.40;7.75;;;;;;;5.12;100.00;94993.69;5037993;28;20043;-69
2022/11/17 01:31:55;;;;;;;11.77;8.55;;;;;;;5.19;100.00;94995.69;5039960;28;20041;-69
2022/11/17 01:34:20;;;;;;;20.40;8.75;;;;;;;5.29;100.00;94994.97;5034963;28;20120;-69
2022/11/17 01:39:30;;;;;;;16.00;9.27;;;;;;;5.34;100.00;94983.78;5037482;28;20072;-68
2022/11/17 01:41:56;;;;;;;14.85;8.75;;;;;;;5.43;100.00;94988.91;5039449;28;20401;-68
2022/11/17 01:44:40;;;;;;;17.63;9.70;;;;;;;5.50;100.00;94983.53;5014886;28;20053;-69
2022/11/17 01:47:45;;;;;;;16.02;9.02;;;;;;;5.70;100.00;94990.28;5032838;28;20044;-68
2022/11/17 01:50:22;;;;;;;15.45;8.80;;;;;;;5.77;100.00;94984.13;5035401;28;20223;-69
2022/11/17 01:52:50;;;;;;;14.32;7.78;;;;;;;5.91;100.00;94984.25;5043224;28;20090;-68
2022/11/17 01:55:19;;;;;;;13.35;8.32;;;;;;;6.05;100.00;94982.78;5037682;28;20041;-68
2022/11/17 01:57:50;;;;;;;14.50;7.65;;;;;;;6.15;100.00;94990.22;5042663;28;20486;-67
2022/11/17 02:00:16;;;;;;;14.15;7.13;;;;;;;6.15;100.00;94981.31;5037746;28;20039;-67
2022/11/17 02:02:43;;;;;;;17.52;8.38;;;;;;;6.17;100.00;94968.88;5042906;28;20036;-67
2022/11/17 02:05:21;;;;;;;18.27;8.05;;;;;;;5.87;100.00;94960.91;5019813;28;20665;-67
2022/11/17 02:07:49;;;;;;;15.68;7.70;;;;;;;5.72;100.00;94944.50;5042565;28;20069;-68
2022/11/17 02:10:15;;;;;;;12.30;7.22;;;;;;;5.64;100.00;94937.47;5019975;28;20371;-68
2022/11/17 02:12:41;;;;;;;10.07;7.05;;;;;;;5.62;100.00;94939.00;5039239;28;20052;-68
2022/11/17 02:15:07;;;;;;;9.60;6.95;;;;;;;5.54;100.00;94917.22;5038432;28;20382;-67
2022/11/17 02:17:39;;;;;;;9.90;7.15;;;;;;;5.40;100.00;94906.25;5052658;28;20040;-68
2022/11/17 02:20:15;;;;;;;10.90;7.22;;;;;;;5.54;100.00;94913.75;5048804;28;20112;-68
2022/11/17 02:23:11;;;;;;;13.60;6.82;;;;;;;5.57;100.00;94898.63;5048645;28;20045;-68
2022/11/17 02:25:46;;;;;;;10.48;6.65;;;;;;;5.52;100.00;94895.09;5041035;28;20033;-68
2022/11/17 02:28:21;;;;;;;10.80;6.45;;;;;;;5.55;100.00;94874.56;5036892;28;20049;-68
2022/11/17 02:30:59;;;;;;;13.15;5.97;;;;;;;5.58;100.00;94854.78;5026757;28;20037;-67
2022/11/17 02:33:33;;;;;;;10.65;5.82;;;;;;;5.58;100.00;94854.78;5045539;28;20041;-68
2022/11/17 02:36:17;;;;;;;8.00;5.22;;;;;;;5.58;100.00;94835.00;5040977;28;20516;-67
2022/11/17 02:39:30;;;;;;;10.77;5.13;;;;;;;5.61;100.00;94813.31;5039553;28;20037;-70
2022/11/17 02:42:17;;;;;;;8.35;5.20;;;;;;;5.59;100.00;94804.75;5041775;28;20037;-68
2022/11/17 02:44:54;;;;;;;7.93;5.63;;;;;;;5.60;100.00;94798.19;5042064;28;20363;-68
2022/11/17 02:47:25;;;;;;;8.15;4.57;;;;;;;5.62;100.00;94784.19;5016900;28;22193;-68
2022/11/17 02:50:09;;;;;;;7.97;5.13;;;;;;;5.57;100.00;94774.50;5042057;28;20040;-67
2022/11/17 02:52:34;;;;;;;10.00;4.80;;;;;;;5.59;100.00;94776.81;5040122;28;20587;-68
2022/11/17 02:55:02;;;;;;;9.82;6.13;;;;;;;5.51;100.00;94789.56;5042117;28;20049;-68
2022/11/17 02:57:30;;;;;;;8.27;5.68;;;;;;;5.44;100.00;94793.06;5042292;28;20049;-68
2022/11/17 02:59:59;;;;;;;9.73;6.05;;;;;;;5.45;100.00;94794.59;5042033;28;20561;-70
2022/11/17 03:02:38;;;;;;;11.88;6.22;;;;;;;5.46;100.00;94789.97;5035851;28;20108;-68
2022/11/17 03:05:18;;;;;;;8.32;5.65;;;;;;;5.55;100.00;94804.75;5037540;28;20052;-69
2022/11/17 03:08:09;;;;;;;9.60;5.65;;;;;;;5.57;100.00;94801.66;5022550;28;20046;-68
2022/11/17 03:10:52;;;;;;;11.80;6.75;;;;;;;5.62;100.00;94812.16;5023206;28;20191;-68
2022/11/17 03:13:21;;;;;;;9.60;5.88;;;;;;;5.68;100.00;94823.44;5022798;28;20041;-68
2022/11/17 03:16:24;;;;;;;8.70;5.78;;;;;;;5.79;100.00;94845.22;5043771;28;20150;-70
2022/11/17 03:19:11;;;;;;;8.68;5.50;;;;;;;5.94;100.00;94844.91;5042952;28;20029;-67
2022/11/17 03:22:13;;;;;;;10.60;5.60;;;;;;;6.12;100.00;94853.16;5043366;28;20045;-67
2022/11/17 03:24:45;;;;;;;7.60;5.65;;;;;;;6.24;100.00;94881.91;5055584;28;20040;-67
2022/11/17 03:27:15;;;;;;;9.65;6.35;;;;;;;6.31;100.00;94897.50;5048573;28;20068;-67
2022/11/17 03:29:48;;;;;;;9.43;5.65;;;;;;;6.48;100.00;94917.75;5049452;28;20048;-67
2022/11/17 03:32:15;;;;;;;9.00;5.60;;;;;;;6.46;100.00;94925.50;5038566;28;20135;-67
2022/11/17 03:34:54;;;;;;;7.70;5.45;;;;;;;6.52;100.00;94932.16;5041612;28;20041;-67
2022/11/17 03:37:22;;;;;;;9.40;5.45;;;;;;;6.50;100.00;94927.09;5045412;28;20041;-67
2022/11/17 03:39:56;;;;;;;9.35;5.30;;;;;;;6.47;100.00;94916.97;5060948;28;20398;-67
2022/11/17 03:42:29;;;;;;;8.82;5.65;;;;;;;6.41;100.00;94918.50;5019187;28;20052;-67
2022/11/17 03:45:08;;;;;;;10.40;6.20;;;;;;;6.61;100.00;94931.78;5009577;28;20383;-67
2022/11/17 03:47:34;;;;;;;9.65;6.18;;;;;;;6.53;100.00;94922.03;5038666;28;20398;-66
2022/11/17 03:50:12;;;;;;;10.48;5.97;;;;;;;6.23;100.00;94904.06;5041858;28;20071;-67
2022/11/17 03:52:38;;;;;;;11.40;6.78;;;;;;;5.96;100.00;94890.75;5042106;28;20045;-67
2022/11/17 03:55:05;;;;;;;10.32;6.60;;;;;;;5.75;100.00;94878.56;5039231;28;20041;-65
2022/11/17 03:57:39;;;;;;;13.25;7.30;;;;;;;5.74;100.00;94882.47;5041077;28;20128;-66
2022/11/17 04:00:07;;;;;;;8.02;6.25;;;;;;;5.91;100.00;94872.06;5037706;28;20082;-67
2022/11/17 04:02:32;;;;;;;12.43;7.13;;;;;;;5.89;100.00;94866.22;5041682;28;20040;-66
2022/11/17 04:05:04;;;;;;;9.38;6.82;;;;;;;5.66;100.00;94852.91;5023715;28;20059;-66
2022/11/17 04:07:33;;;;;;;13.13;8.18;;;;;;;5.67;100.00;94840.88;5040171;28;20079;-67
2022/11/17 04:09:59;;;;;;;13.02;8.38;;;;;;;5.59;100.00;94840.06;5042018;28;20037;-68
2022/11/17 04:17:56;;;;;;;13.75;9.52;;;;;;;5.65;100.00;94816.81;5024642;28;20139;-67
2022/11/17 04:20:22;;;;;;;16.80;10.27;;;;;;;5.66;100.00;94825.75;5037045;28;30772;-67
2022/11/17 04:23:05;;;;;;;14.27;10.10;;;;;;;5.70;100.00;94834.69;5041685;28;20612;-68
2022/11/17 04:28:37;;;;;;;16.70;9.73;;;;;;;5.97;100.00;94850.75;5035841;28;20095;-67
2022/11/17 04:31:15;;;;;;;13.07;9.27;;;;;;;5.99;100.00;94843.78;5038766;28;20081;-66
2022/11/17 04:33:46;;;;;;;16.98;10.13;;;;;;;6.01;100.00;94832.53;5041891;28;20090;-68
2022/11/17 04:36:13;;;;;;;21.42;11.27;;;;;;;6.16;100.00;94836.06;5040369;28;20457;-67
2022/11/17 04:38:44;;;;;;;15.93;10.52;;;;;;;6.35;100.00;94827.59;5042220;28;20069;-67
2022/11/17 04:43:55;;;;;;;12.88;8.52;;;;;;;6.65;100.00;94821.03;5041847;28;20207;-68
2022/11/17 04:46:21;;;;;;;18.17;9.18;;;;;;;6.68;100.00;94818.31;5034799;28;20145;-67
2022/11/17 04:48:47;;;;;;;16.13;8.50;;;;;;;6.52;100.00;94807.03;5039007;28;20041;-66
2022/11/17 04:51:13;;;;;;;12.85;8.68;;;;;;;6.38;100.00;94796.13;5036959;28;20479;-67
2022/11/17 04:53:39;;;;;;;14.80;8.70;;;;;;;6.42;100.00;94805.84;5041406;28;20077;-68
2022/11/17 04:56:05;;;;;;;19.15;9.45;;;;;;;6.54;100.00;94812.88;5035214;28;20138;-66
2022/11/17 04:58:31;;;;;;;13.15;8.30;;;;;;;6.54;100.00;94831.13;5039615;28;20040;-67
2022/11/17 05:01:11;;;;;;;14.57;8.55;;;;;;;6.54;100.00;94834.63;5039686;28;20049;-67
2022/11/17 05:03:44;;;;;;;13.48;7.85;;;;;;;6.65;100.00;94831.91;5039969;28;20040;-68
2022/11/17 05:06:13;;;;;;;13.82;8.00;;;;;;;6.57;100.00;94835.78;5035187;28;20129;-68
2022/11/17 05:08:39;;;;;;;12.05;8.40;;;;;;;6.51;100.00;94849.00;5040263;28;20045;-68
2022/11/17 05:13:51;;;;;;;12.00;8.27;;;;;;;6.70;100.00;94839.72;5040918;28;20063;-68
2022/11/17 05:19:04;;;;;;;10.52;7.57;;;;;;;6.55;100.00;94825.28;5038543;28;20367;-67
2022/11/17 05:21:29;;;;;;;14.80;7.95;;;;;;;6.62;100.00;94828.00;5042799;28;20107;-67
2022/11/17 05:23:55;;;;;;;9.80;6.80;;;;;;;6.73;100.00;94830.75;5054455;28;20112;-67
2022/11/17 05:26:26;;;;;;;12.05;6.60;;;;;;;6.80;100.00;94833.47;5051832;28;20041;-67
2022/11/17 05:28:54;;;;;;;10.57;7.47;;;;;;;6.82;100.00;94846.69;5056298;28;20668;-67
2022/11/17 05:31:20;;;;;;;12.50;6.47;;;;;;;6.70;100.00;94854.09;5038926;28;20064;-67
2022/11/17 05:33:46;;;;;;;9.52;7.13;;;;;;;6.79;100.00;94859.16;5040350;28;20490;-68
2022/11/17 05:36:12;;;;;;;10.35;6.50;;;;;;;6.77;100.00;94856.03;5036152;28;20041;-67
2022/11/17 05:38:40;;;;;;;12.57;7.18;;;;;;;6.74;100.00;94873.13;5037795;28;20127;-67
2022/11/17 05:41:05;;;;;;;8.50;6.85;;;;;;;6.68;100.00;94869.22;5025582;28;20175;-66
2022/11/17 05:43:31;;;;;;;12.45;6.88;;;;;;;6.67;100.00;94876.59;5023478;28;20070;-67
2022/11/17 05:45:57;;;;;;;9.90;6.90;;;;;;;6.64;100.00;94846.69;5040429;28;20131;-68
2022/11/17 05:48:22;;;;;;;10.38;6.90;;;;;;;6.72;100.00;94848.25;5036911;28;20129;-68
2022/11/17 05:50:51;;;;;;;10.85;6.97;;;;;;;6.58;100.00;94851.72;5042370;28;20334;-68
2022/11/17 05:53:16;;;;;;;11.95;7.72;;;;;;;6.49;100.00;94854.03;5044690;28;20041;-68
2022/11/17 05:55:41;;;;;;;11.27;7.18;;;;;;;6.45;100.00;94836.94;5052392;28;20060;-68
2022/11/17 05:58:25;;;;;;;10.52;7.20;;;;;;;6.37;100.00;94851.66;5040228;28;20126;-68
2022/11/17 06:00:53;;;;;;;12.20;7.00;;;;;;;6.60;100.00;94859.50;5040849;28;20045;-68
2022/11/17 06:03:24;;;;;;;9.88;6.68;;;;;;;6.66;100.00;94857.94;5033689;28;20037;-68
2022/11/17 06:05:51;;;;;;;13.82;7.55;;;;;;;6.66;100.00;94861.47;5019938;28;20037;-68
2022/11/17 06:08:16;;;;;;;10.45;6.85;;;;;;;6.68;100.00;94863.78;5034624;28;20041;-67
2022/11/17 06:10:42;;;;;;;10.98;8.00;;;;;;;6.17;100.00;94849.28;5039386;28;20033;-67
2022/11/17 06:13:07;;;;;;;13.30;8.77;;;;;;;6.01;100.00;94857.75;5036414;28;20397;-67
2022/11/17 06:15:34;;;;;;;14.18;9.30;;;;;;;6.02;100.00;94859.31;5038515;28;20047;-67
2022/11/17 06:18:13;;;;;;;13.90;9.95;;;;;;;6.04;100.00;94848.84;5040923;28;20056;-68
2022/11/17 06:20:41;;;;;;;13.30;8.95;;;;;;;5.91;100.00;94851.09;5042128;28;20130;-67
2022/11/17 06:23:09;;;;;;;20.13;10.23;;;;;;;5.77;100.00;94859.16;5039890;28;20045;-67
2022/11/17 06:25:36;;;;;;;14.27;9.73;;;;;;;5.96;100.00;94866.28;5043025;28;20045;-67
2022/11/17 06:28:06;;;;;;;19.58;10.82;;;;;;;6.04;100.00;94851.56;5040305;28;20045;-67
2022/11/17 06:30:34;;;;;;;14.13;9.80;;;;;;;6.29;100.00;94859.81;5042037;28;20052;-67
2022/11/17 06:33:01;;;;;;;29.33;13.80;;;;;;;6.52;100.00;94880.47;5049050;28;20087;-69
2022/11/17 06:35:32;;;;;;;12.23;9.57;;;;;;;6.37;100.00;94895.94;5043359;28;20079;-69
2022/11/17 06:37:58;;;;;;;14.55;9.98;;;;;;;6.32;100.00;94908.00;5046587;28;20368;-68
2022/11/17 06:40:24;;;;;;;18.70;10.10;;;;;;;6.39;100.00;94898.28;5039494;28;20423;-70
2022/11/17 06:45:45;;;;;;;19.90;11.77;;;;;;;6.47;100.00;94916.19;5041915;28;20560;-68
2022/11/17 06:48:13;;;;;;;20.40;12.75;;;;;;;6.61;100.00;94910.81;5039430;28;20045;-67
2022/11/17 06:50:38;;;;;;;20.83;12.90;;;;;;;6.70;100.00;94903.06;5061312;28;20048;-69
2022/11/17 06:53:06;;;;;;;16.90;9.88;;;;;;;6.77;100.00;94898.78;5013684;28;20487;-67
2022/11/17 06:55:33;;;;;;;15.77;9.88;;;;;;;6.70;100.00;94884.00;5040345;28;20044;-68
2022/11/17 06:58:07;;;;;;;24.98;13.30;;;;;;;6.80;100.00;94885.19;5025243;28;20045;-68
2022/11/17 07:00:36;;;;;;;21.58;12.75;;;;;;;6.54;100.00;94877.38;5041045;28;20048;-67
2022/11/17 07:03:06;;;;;;;20.75;11.95;;;;;;;6.40;100.00;94869.94;5023277;28;20046;-67
2022/11/17 07:05:33;;;;;;;12.45;8.23;;;;;;;6.21;100.00;94857.44;5036638;28;20084;-68
2022/11/17 07:08:01;;;;;;;13.05;9.32;;;;;;;6.09;100.00;94853.91;5041077;28;20048;-69
2022/11/17 07:10:27;;;;;;;15.23;11.30;;;;;;;6.12;100.00;94863.22;5038230;28;20044;-69
2022/11/17 07:12:53;;;;;;;17.42;11.38;;;;;;;6.11;100.00;94867.13;5043248;28;20124;-69
2022/11/17 07:15:19;;;;;;;18.02;10.82;;;;;;;6.20;100.00;94883.09;5036559;28;20135;-67
2022/11/17 07:17:45;;;;;;;17.33;11.48;;;;;;;6.19;100.00;94873.34;5041875;28;20099;-68
2022/11/17 07:20:11;;;;;;;14.70;10.40;;;;;;;6.32;100.00;94886.25;5020552;28;20041;-67
2022/11/17 07:22:37;;;;;;;14.18;9.90;;;;;;;6.47;100.00;94897.16;5040307;28;20099;-66
2022/11/17 07:25:03;;;;;;;16.05;9.98;;;;;;;6.87;100.00;94881.69;5041378;28;20045;-67
2022/11/17 07:27:29;;;;;;;14.43;8.52;;;;;;;6.80;100.00;94873.53;5041431;28;20474;-68
2022/11/17 07:29:55;;;;;;;81.68;39.67;;;;;;;6.93;100.00;94876.66;5042696;28;20051;-67
2022/11/17 07:32:21;;;;;;;10.50;9.05;;;;;;;7.20;100.00;94868.88;5038095;28;20053;-69
2022/11/17 07:34:46;;;;;;;13.13;7.75;;;;;;;7.59;100.00;94868.06;5042786;28;20552;-69
2022/11/17 07:37:12;;;;;;;12.38;8.07;;;;;;;7.87;100.00;94872.69;5036660;28;20045;-68
2022/11/17 07:39:37;;;;;;;9.90;7.80;;;;;;;8.83;100.00;94875.44;5041990;28;20091;-68
2022/11/17 07:42:03;;;;;;;12.88;6.60;;;;;;;9.48;100.00;94871.03;5040351;28;20041;-67
2022/11/17 07:44:30;;;;;;;8.77;6.38;;;;;;;9.18;100.00;94860.72;5023970;28;20053;-67
2022/11/17 07:46:55;;;;;;;11.20;6.22;;;;;;;9.14;100.00;94871.69;5022266;28;20128;-67
2022/11/17 07:49:21;;;;;;;18.15;7.35;;;;;;;7.94;100.00;94869.16;5037912;28;21084;-65
2022/11/17 07:51:46;;;;;;;9.18;6.18;;;;;;;8.23;100.00;94870.63;5042846;28;20044;-67
2022/11/17 07:54:12;;;;;;;9.38;5.93;;;;;;;8.35;100.00;94861.22;5038549;28;20048;-68
2022/11/17 07:56:37;;;;;;;9.95;6.80;;;;;;;8.94;100.00;94863.25;5044353;28;20386;-68
2022/11/17 07:59:03;;;;;;;10.45;6.53;;;;;;;8.91;100.00;94861.34;5026403;28;20102;-64
2022/11/17 08:01:28;;;;;;;9.43;6.07;;;;;;;9.39;100.00;94881.66;5031992;28;20435;-68
2022/11/17 08:03:54;;;;;;;9.93;6.22;;;;;;;9.74;100.00;94871.56;5042802;28;20037;-68
2022/11/17 08:06:19;;;;;;;11.65;7.40;;;;;;;10.07;100.00;94874.75;5037700;28;20155;-69
2022/11/17 08:08:47;;;;;;;8.80;6.30;;;;;;;10.80;100.00;94889.13;5042996;28;20565;-68
2022/11/17 08:11:12;;;;;;;11.52;6.55;;;;;;;11.10;100.00;94888.31;5037943;28;20189;-68
2022/11/17 08:13:39;;;;;;;9.68;5.20;;;;;;;11.66;100.00;94894.09;5024619;28;20033;-70
2022/11/17 08:16:05;;;;;;;8.95;5.43;;;;;;;12.81;100.00;94891.94;5034877;28;20047;-66
2022/11/17 08:18:31;;;;;;;8.35;5.07;;;;;;;13.05;100.00;94891.81;5042307;28;20049;-70
2022/11/17 08:21:09;;;;;;;6.60;4.30;;;;;;;13.30;100.00;94887.72;5041615;28;20441;-70
2022/11/17 08:23:34;;;;;;;6.90;4.50;;;;;;;14.47;100.00;94888.69;5041815;28;20494;-70
2022/11/17 08:26:02;;;;;;;7.57;5.45;;;;;;;13.76;98.27;94875.63;5042717;28;20052;-70
2022/11/17 08:28:28;;;;;;;7.25;4.90;;;;;;;12.22;100.00;94868.03;5040116;28;20386;-70
2022/11/17 08:30:53;;;;;;;9.07;5.10;;;;;;;13.08;100.00;94870.97;5040935;28;20049;-68
2022/11/17 08:33:18;;;;;;;8.93;5.35;;;;;;;14.21;97.54;94868.56;5038159;28;20044;-70
2022/11/17 08:35:44;;;;;;;10.80;5.30;;;;;;;14.82;95.83;94886.19;5039940;28;20531;-68
2022/11/17 08:38:14;;;;;;;6.90;3.40;;;;;;;15.44;85.53;94880.34;5037128;28;20037;-69
2022/11/17 08:40:40;;;;;;;3.67;2.80;;;;;;;15.78;80.30;94875.38;5040912;28;20041;-68
2022/11/17 08:43:06;;;;;;;5.63;2.00;;;;;;;16.08;80.26;94875.94;5036767;28;20086;-68
2022/11/17 08:45:32;;;;;;;5.95;2.70;;;;;;;15.84;78.53;94884.63;5040732;28;20044;-70
2022/11/17 08:47:57;;;;;;;7.07;3.80;;;;;;;16.51;77.53;94891.00;5042147;28;20037;-70
2022/11/17 08:50:22;;;;;;;5.85;2.60;;;;;;;16.31;74.21;94899.59;5037073;28;20068;-70
2022/11/17 08:52:48;;;;;;;4.28;3.05;;;;;;;14.92;83.25;94881.56;5042800;28;20064;-69
2022/11/17 08:55:13;;;;;;;3.78;2.75;;;;;;;15.47;81.35;94886.97;5043741;28;20049;-70
2022/11/17 08:57:39;;;;;;;5.03;2.10;;;;;;;15.53;78.62;94900.97;5050479;28;20055;-70
2022/11/17 09:00:05;;;;;;;3.78;1.40;;;;;;;14.21;84.20;94900.84;5035634;28;20114;-66
2022/11/17 09:02:31;;;;;;;3.25;2.10;;;;;;;13.80;89.61;94894.03;5040320;28;20123;-70
2022/11/17 09:04:56;;;;;;;3.83;2.17;;;;;;;13.88;90.39;94900.88;5041077;28;20573;-70
2022/11/17 09:07:22;;;;;;;6.97;2.25;;;;;;;13.73;92.22;94906.75;5035162;28;20836;-69
2022/11/17 09:09:47;;;;;;;4.18;2.25;;;;;;;12.70;92.22;94902.38;5039899;28;20102;-70
2022/11/17 09:12:14;;;;;;;8.63;4.53;;;;;;;12.80;92.99;94914.34;5036282;28;20049;-70
2022/11/17 09:14:39;;;;;;;2.67;1.65;;;;;;;13.15;89.86;94912.03;5041363;28;20037;-70
2022/11/17 09:17:06;;;;;;;6.15;1.67;;;;;;;12.93;93.66;94926.25;5033296;28;20478;-67
2022/11/17 09:19:31;;;;;;;3.38;1.70;;;;;;;12.64;95.93;94939.78;5022635;28;20106;-70
2022/11/17 09:21:57;;;;;;;3.10;1.77;;;;;;;12.46;96.84;94926.41;5041161;28;20041;-68
2022/11/17 09:24:22;;;;;;;2.85;1.67;;;;;;;12.52;95.10;94934.94;5035247;28;20049;-70
2022/11/17 09:26:48;;;;;;;5.00;1.60;;;;;;;12.66;91.38;94933.84;5040869;28;20037;-69
2022/11/17 09:29:14;;;;;;;4.60;1.20;;;;;;;13.25;88.37;94933.00;5036484;28;20044;-69
2022/11/17 09:31:39;;;;;;;2.03;1.20;;;;;;;13.64;79.88;94933.31;5024776;28;20041;-68
2022/11/17 09:34:05;;;;;;;3.03;1.10;;;;;;;14.10;79.76;94932.19;5044937;28;20131;-65
2022/11/17 09:36:31;;;;;;;3.35;1.13;;;;;;;13.84;78.47;94938.75;5050353;28;20045;-69
2022/11/17 09:38:57;;;;;;;2.70;1.20;;;;;;;13.68;76.84;94940.28;5051124;28;20052;-69
2022/11/17 09:41:25;;;;;;;2.63;1.20;;;;;;;14.21;78.22;94951.19;5031911;28;20540;-70
2022/11/17 09:44:28;;;;;;;3.45;1.10;;;;;;;15.18;72.59;94950.50;5040102;28;20429;-70
2022/11/17 09:46:56;;;;;;;4.63;2.08;;;;;;;14.84;73.69;94952.66;5035593;28;20037;-68
2022/11/17 09:49:44;;;;;;;4.03;1.30;;;;;;;14.60;76.22;94946.63;5036702;28;20148;-69
2022/11/17 09:52:42;;;;;;;2.90;1.00;;;;;;;14.00;79.49;94959.97;5036057;28;20041;-68
2022/11/17 09:55:08;;;;;;;3.75;1.38;;;;;;;13.20;83.05;94977.50;5036604;28;20107;-68
2022/11/17 09:57:50;;;;;;;3.30;1.08;;;;;;;13.26;85.46;94964.78;5023174;28;20037;-68
2022/11/17 10:00:18;;;;;;;4.78;1.42;;;;;;;13.96;82.88;94960.84;5002127;28;20049;-69
2022/11/17 10:02:44;;;;;;;2.22;1.10;;;;;;;13.68;82.52;94958.78;5040663;28;20045;-69
2022/11/17 10:05:14;;;;;;;3.22;1.27;;;;;;;13.27;85.01;94971.06;5035410;28;20040;-68
2022/11/17 10:07:46;;;;;;;10.27;2.35;;;;;;;13.36;88.60;94968.53;5015864;28;20038;-69
2022/11/17 10:10:20;;;;;;;9.68;1.50;;;;;;;13.36;88.83;94976.78;5033825;28;20072;-69
2022/11/17 10:12:55;;;;;;;6.88;1.70;;;;;;;13.44;86.30;94980.16;5044598;28;20320;-69
2022/11/17 10:15:45;;;;;;;2.95;1.40;;;;;;;13.47;86.11;94993.81;5020608;28;20045;-69
2022/11/17 10:18:13;;;;;;;5.13;1.80;;;;;;;13.72;86.99;94981.47;5040168;28;20563;-69
2022/11/17 10:20:40;;;;;;;5.28;1.48;;;;;;;13.76;85.55;94982.94;5025875;28;20543;-69
2022/11/17 10:23:11;;;;;;;3.22;1.13;;;;;;;14.13;81.87;94983.63;5038949;28;20039;-71
2022/11/17 10:25:40;;;;;;;5.75;1.20;;;;;;;13.49;84.66;94971.41;5042305;28;20056;-68
2022/11/17 10:28:21;;;;;;;8.80;1.60;;;;;;;14.02;84.48;94982.34;5039124;28;20367;-68
2022/11/17 10:30:53;;;;;;;4.57;1.20;;;;;;;14.02;82.45;94985.84;5044393;28;20128;-68
2022/11/17 10:33:35;;;;;;;6.50;1.98;;;;;;;14.20;83.19;94973.63;5039173;28;20459;-69
2022/11/17 10:36:02;;;;;;;4.40;1.30;;;;;;;14.23;81.71;94968.03;5041250;28;20064;-69
2022/11/17 10:38:28;;;;;;;3.22;1.23;;;;;;;14.06;83.08;94972.00;5039926;28;20048;-68
2022/11/17 10:40:57;;;;;;;4.95;1.20;;;;;;;13.49;87.06;94969.41;5043601;28;20033;-68
2022/11/17 10:43:26;;;;;;;6.10;1.60;;;;;;;13.78;85.21;94968.75;5039286;28;20218;-68
2022/11/17 10:45:55;;;;;;;4.72;1.15;;;;;;;13.56;86.99;94960.25;5050596;28;20344;-69
2022/11/17 10:48:26;;;;;;;;;;;;;;;13.43;87.68;94957.34;5046730;28;20889;-69
2022/11/17 10:51:15;;;;;;;5.95;1.55;;;;;;;13.74;87.46;94949.56;5050329;28;19920;-69
2022/11/17 10:53:43;;;;;;;7.38;1.33;;;;;;;13.79;83.90;94953.00;5027348;28;20393;-66
2022/11/17 10:56:21;;;;;;;5.32;1.60;;;;;;;13.78;85.16;94938.50;5038463;28;20657;-68
2022/11/17 10:58:58;;;;;;;7.93;1.65;;;;;;;14.45;80.70;94937.94;5042386;28;20048;-69
2022/11/17 11:01:31;;;;;;;5.75;1.40;;;;;;;14.67;78.22;94943.66;5039739;28;20440;-69
2022/11/17 11:03:57;;;;;;;6.03;1.40;;;;;;;14.17;80.19;94941.44;5045527;28;20076;-66
2022/11/17 11:06:25;;;;;;;5.10;1.10;;;;;;;13.99;79.33;94939.16;5022479;28;20139;-68
2022/11/17 11:09:17;;;;;;;21.15;2.65;;;;;;;13.51;82.84;94952.50;5064275;28;20044;-67
2022/11/17 11:11:48;;;;;;;6.72;1.85;;;;;;;13.40;83.68;94947.25;5035341;28;20044;-68
2022/11/17 11:14:18;;;;;;;6.60;1.30;;;;;;;13.05;84.29;94949.53;5030017;28;20041;-67
2022/11/17 11:16:49;;;;;;;4.45;1.20;;;;;;;12.97;83.25;94948.16;5042594;28;20442;-68
2022/11/17 11:19:17;;;;;;;10.07;1.77;;;;;;;12.90;83.96;94943.56;5019485;28;20422;-68
2022/11/17 11:22:04;;;;;;;7.75;1.75;;;;;;;13.19;84.47;94938.22;5042517;28;20045;-68
2022/11/17 11:24:59;;;;;;;5.65;1.27;;;;;;;13.04;83.77;94933.50;5023426;28;20127;-67
2022/11/17 11:27:47;;;;;;;7.10;1.98;;;;;;;12.98;83.17;94946.94;5037641;28;20531;-67
2022/11/17 11:30:15;;;;;;;4.50;1.50;;;;;;;12.96;84.12;94930.91;5039150;28;20037;-67
2022/11/17 11:33:32;;;;;;;8.60;1.42;;;;;;;13.06;80.62;94923.59;5043525;28;20421;-67
2022/11/17 11:36:23;;;;;;;8.63;1.60;;;;;;;12.96;82.84;94935.59;5028111;28;20057;-67
2022/11/17 11:39:00;;;;;;;8.27;1.25;;;;;;;12.84;83.06;94942.53;5024280;28;20040;-67
2022/11/17 11:41:45;;;;;;;9.60;1.52;;;;;;;12.50;85.18;94943.59;5020638;28;20076;-67
2022/11/17 11:44:43;;;;;;;3.00;1.00;;;;;;;12.50;84.71;94934.59;5036344;28;20468;-69
2022/11/17 11:47:56;;;;;;;3.92;1.30;;;;;;;12.58;84.98;94916.75;5037682;28;20049;-67
2022/11/17 11:50:29;;;;;;;3.15;1.02;;;;;;;13.26;82.26;94912.56;5009635;28;20247;-67
2022/11/17 11:53:04;;;;;;;4.50;1.20;;;;;;;13.76;79.51;94910.63;5042621;28;20064;-67
2022/11/17 11:55:33;;;;;;;6.38;1.50;;;;;;;13.92;79.28;94921.63;5007513;28;20533;-66
2022/11/17 11:58:21;;;;;;;7.32;1.80;;;;;;;14.73;75.56;94910.84;5044627;28;20072;-67
2022/11/17 12:00:50;;;;;;;12.02;1.65;;;;;;;14.90;74.53;94917.06;5037778;28;20041;-68
2022/11/17 12:03:31;;;;;;;6.75;1.13;;;;;;;14.89;74.66;94912.75;5011205;28;20482;-67
2022/11/17 12:06:48;;;;;;;4.18;1.05;;;;;;;15.14;72.87;94914.00;5042800;28;20041;-66
2022/11/17 12:08:58;;;;;;;10.90;1.40;;;;;;;15.55;69.81;94912.34;5038635;28;20123;-67
2022/11/17 12:14:16;;;;;;;48.97;4.88;;;;;;;15.99;65.18;94901.47;5027598;28;20071;-68
2022/11/17 12:16:43;;;;;;;5.47;1.20;;;;;;;16.38;62.35;94910.41;5058624;28;20489;-67
2022/11/17 12:19:43;;;;;;;3.20;1.40;;;;;;;16.07;65.14;94913.81;5053115;28;20113;-67
2022/11/17 12:22:13;;;;;;;6.18;1.25;;;;;;;16.11;64.37;94911.72;5037309;28;20044;-66